sensor_id;sensor_type;location;lat;lon;timestamp;P1;durP1;ratioP1;P2;durP2;ratioP2
27847;SDS011;15212;48.830;8.730;2022-08-20T00:01:11;2.08;;;1.30;;
27847;SDS011;15212;48.830;8.730;2022-08-20T00:03:40;1.82;;;1.30;;
27847;SDS011;15212;48.830;8.730;2022-08-20T00:06:13;2.17;;;1.27;;
27847;SDS011;15212;48.830;8.730;2022-08-20T00:08:45;1.82;;;1.10;;
27847;SDS011;15212;48.830;8.730;2022-08-20T00:11:15;2.42;;;1.25;;
27847;SDS011;15212;48.830;8.730;2022-08-20T00:13:49;2.87;;;1.10;;
27847;SDS011;15212;48.830;8.730;2022-08-20T00:16:21;1.45;;;1.30;;
27847;SDS011;15212;48.830;8.730;2022-08-20T00:18:55;1.50;;;1.30;;
27847;SDS011;15212;48.830;8.730;2022-08-20T00:21:23;2.92;;;1.35;;
27847;SDS011;15212;48.830;8.730;2022-08-20T00:23:52;2.33;;;1.47;;
27847;SDS011;15212;48.830;8.730;2022-08-20T00:26:22;1.37;;;1.17;;
27847;SDS011;15212;48.830;8.730;2022-08-20T00:28:51;2.67;;;1.32;;
27847;SDS011;15212;48.830;8.730;2022-08-20T00:31:22;2.45;;;1.30;;
27847;SDS011;15212;48.830;8.730;2022-08-20T00:33:51;3.17;;;1.37;;
27847;SDS011;15212;48.830;8.730;2022-08-20T00:36:20;1.62;;;1.15;;
27847;SDS011;15212;48.830;8.730;2022-08-20T00:38:49;1.50;;;1.30;;
27847;SDS011;15212;48.830;8.730;2022-08-20T00:41:22;1.20;;;1.10;;
27847;SDS011;15212;48.830;8.730;2022-08-20T00:43:52;2.85;;;1.47;;
27847;SDS011;15212;48.830;8.730;2022-08-20T00:46:44;1.67;;;1.35;;
27847;SDS011;15212;48.830;8.730;2022-08-20T00:49:15;2.72;;;1.02;;
27847;SDS011;15212;48.830;8.730;2022-08-20T00:51:51;1.55;;;1.20;;
27847;SDS011;15212;48.830;8.730;2022-08-20T00:54:42;2.55;;;1.27;;
27847;SDS011;15212;48.830;8.730;2022-08-20T00:57:23;2.45;;;1.42;;
27847;SDS011;15212;48.830;8.730;2022-08-20T00:59:57;2.35;;;1.30;;
27847;SDS011;15212;48.830;8.730;2022-08-20T01:02:28;2.85;;;1.37;;
27847;SDS011;15212;48.830;8.730;2022-08-20T01:04:59;4.25;;;1.30;;
27847;SDS011;15212;48.830;8.730;2022-08-20T01:07:29;4.40;;;1.40;;
27847;SDS011;15212;48.830;8.730;2022-08-20T01:09:59;1.20;;;1.10;;
27847;SDS011;15212;48.830;8.730;2022-08-20T01:12:34;2.47;;;1.47;;
27847;SDS011;15212;48.830;8.730;2022-08-20T01:15:07;2.27;;;1.17;;
27847;SDS011;15212;48.830;8.730;2022-08-20T01:17:41;2.42;;;1.30;;
27847;SDS011;15212;48.830;8.730;2022-08-20T01:22:54;3.20;;;1.40;;
27847;SDS011;15212;48.830;8.730;2022-08-20T01:26:00;3.25;;;1.50;;
27847;SDS011;15212;48.830;8.730;2022-08-20T01:31:34;2.45;;;1.37;;
27847;SDS011;15212;48.830;8.730;2022-08-20T01:34:05;1.57;;;1.47;;
27847;SDS011;15212;48.830;8.730;2022-08-20T01:36:40;4.12;;;2.00;;
27847;SDS011;15212;48.830;8.730;2022-08-20T01:39:21;2.75;;;1.70;;
27847;SDS011;15212;48.830;8.730;2022-08-20T01:44:49;2.50;;;1.70;;
27847;SDS011;15212;48.830;8.730;2022-08-20T01:47:26;2.95;;;1.67;;
27847;SDS011;15212;48.830;8.730;2022-08-20T01:49:59;2.45;;;1.65;;
27847;SDS011;15212;48.830;8.730;2022-08-20T01:55:10;2.35;;;1.98;;
27847;SDS011;15212;48.830;8.730;2022-08-20T01:57:39;2.40;;;1.85;;
27847;SDS011;15212;48.830;8.730;2022-08-20T02:00:09;3.12;;;1.90;;
27847;SDS011;15212;48.830;8.730;2022-08-20T02:02:40;3.12;;;2.12;;
27847;SDS011;15212;48.830;8.730;2022-08-20T02:05:09;5.83;;;2.17;;
27847;SDS011;15212;48.830;8.730;2022-08-20T02:07:37;3.72;;;2.12;;
27847;SDS011;15212;48.830;8.730;2022-08-20T02:10:06;4.72;;;2.20;;
27847;SDS011;15212;48.830;8.730;2022-08-20T02:12:38;2.37;;;1.92;;
27847;SDS011;15212;48.830;8.730;2022-08-20T02:15:07;3.00;;;2.35;;
27847;SDS011;15212;48.830;8.730;2022-08-20T02:17:37;4.28;;;2.50;;
27847;SDS011;15212;48.830;8.730;2022-08-20T02:20:09;5.20;;;2.37;;
27847;SDS011;15212;48.830;8.730;2022-08-20T02:22:46;2.17;;;1.95;;
27847;SDS011;15212;48.830;8.730;2022-08-20T02:25:18;4.45;;;2.62;;
27847;SDS011;15212;48.830;8.730;2022-08-20T02:27:50;4.05;;;3.00;;
27847;SDS011;15212;48.830;8.730;2022-08-20T02:30:23;3.30;;;2.50;;
27847;SDS011;15212;48.830;8.730;2022-08-20T02:32:59;4.35;;;2.65;;
27847;SDS011;15212;48.830;8.730;2022-08-20T02:35:30;5.67;;;2.80;;
27847;SDS011;15212;48.830;8.730;2022-08-20T02:37:59;4.53;;;2.70;;
27847;SDS011;15212;48.830;8.730;2022-08-20T02:40:28;3.60;;;2.60;;
27847;SDS011;15212;48.830;8.730;2022-08-20T02:42:58;3.10;;;2.45;;
27847;SDS011;15212;48.830;8.730;2022-08-20T02:45:28;3.42;;;2.70;;
27847;SDS011;15212;48.830;8.730;2022-08-20T02:50:31;4.85;;;2.90;;
27847;SDS011;15212;48.830;8.730;2022-08-20T02:53:00;5.33;;;3.00;;
27847;SDS011;15212;48.830;8.730;2022-08-20T02:55:28;3.20;;;2.65;;
27847;SDS011;15212;48.830;8.730;2022-08-20T02:57:58;4.60;;;2.95;;
27847;SDS011;15212;48.830;8.730;2022-08-20T03:00:29;3.10;;;2.58;;
27847;SDS011;15212;48.830;8.730;2022-08-20T03:02:57;4.12;;;2.87;;
27847;SDS011;15212;48.830;8.730;2022-08-20T03:05:26;5.17;;;2.87;;
27847;SDS011;15212;48.830;8.730;2022-08-20T03:07:55;4.03;;;3.00;;
27847;SDS011;15212;48.830;8.730;2022-08-20T03:10:24;4.25;;;2.85;;
27847;SDS011;15212;48.830;8.730;2022-08-20T03:12:57;4.30;;;3.02;;
27847;SDS011;15212;48.830;8.730;2022-08-20T03:15:28;3.33;;;2.90;;
27847;SDS011;15212;48.830;8.730;2022-08-20T03:17:58;4.97;;;3.37;;
27847;SDS011;15212;48.830;8.730;2022-08-20T03:20:27;5.80;;;3.50;;
27847;SDS011;15212;48.830;8.730;2022-08-20T03:22:56;4.78;;;3.47;;
27847;SDS011;15212;48.830;8.730;2022-08-20T03:25:25;4.72;;;3.90;;
27847;SDS011;15212;48.830;8.730;2022-08-20T03:27:54;6.72;;;3.50;;
27847;SDS011;15212;48.830;8.730;2022-08-20T03:30:24;5.90;;;3.70;;
27847;SDS011;15212;48.830;8.730;2022-08-20T03:32:54;9.40;;;4.15;;
27847;SDS011;15212;48.830;8.730;2022-08-20T03:35:23;7.95;;;4.03;;
27847;SDS011;15212;48.830;8.730;2022-08-20T03:37:53;5.95;;;3.72;;
27847;SDS011;15212;48.830;8.730;2022-08-20T03:40:31;4.15;;;3.52;;
27847;SDS011;15212;48.830;8.730;2022-08-20T03:43:00;6.75;;;3.92;;
27847;SDS011;15212;48.830;8.730;2022-08-20T03:45:30;5.37;;;4.20;;
27847;SDS011;15212;48.830;8.730;2022-08-20T03:47:58;7.83;;;3.92;;
27847;SDS011;15212;48.830;8.730;2022-08-20T03:50:28;8.03;;;4.05;;
27847;SDS011;15212;48.830;8.730;2022-08-20T03:52:58;7.03;;;4.30;;
27847;SDS011;15212;48.830;8.730;2022-08-20T03:55:28;9.18;;;4.15;;
27847;SDS011;15212;48.830;8.730;2022-08-20T03:57:59;5.60;;;4.15;;
27847;SDS011;15212;48.830;8.730;2022-08-20T04:00:35;5.28;;;4.03;;
27847;SDS011;15212;48.830;8.730;2022-08-20T04:03:12;6.42;;;3.98;;
27847;SDS011;15212;48.830;8.730;2022-08-20T04:05:43;5.33;;;3.83;;
27847;SDS011;15212;48.830;8.730;2022-08-20T04:08:13;8.25;;;4.33;;
27847;SDS011;15212;48.830;8.730;2022-08-20T04:10:46;6.47;;;4.33;;
27847;SDS011;15212;48.830;8.730;2022-08-20T04:13:16;6.20;;;4.30;;
27847;SDS011;15212;48.830;8.730;2022-08-20T04:15:47;5.72;;;4.10;;
27847;SDS011;15212;48.830;8.730;2022-08-20T04:18:15;5.65;;;4.37;;
27847;SDS011;15212;48.830;8.730;2022-08-20T04:20:49;6.40;;;3.87;;
27847;SDS011;15212;48.830;8.730;2022-08-20T04:23:19;7.75;;;4.22;;
27847;SDS011;15212;48.830;8.730;2022-08-20T04:25:49;5.62;;;4.62;;
27847;SDS011;15212;48.830;8.730;2022-08-20T04:28:19;5.90;;;4.40;;
27847;SDS011;15212;48.830;8.730;2022-08-20T04:30:55;6.67;;;4.40;;
27847;SDS011;15212;48.830;8.730;2022-08-20T04:33:26;5.80;;;4.20;;
27847;SDS011;15212;48.830;8.730;2022-08-20T04:38:44;7.97;;;4.53;;
27847;SDS011;15212;48.830;8.730;2022-08-20T04:41:12;5.55;;;4.03;;
27847;SDS011;15212;48.830;8.730;2022-08-20T04:43:41;6.25;;;4.03;;
27847;SDS011;15212;48.830;8.730;2022-08-20T04:46:09;5.65;;;3.83;;
27847;SDS011;15212;48.830;8.730;2022-08-20T04:48:39;5.72;;;4.05;;
27847;SDS011;15212;48.830;8.730;2022-08-20T04:51:08;5.62;;;4.20;;
27847;SDS011;15212;48.830;8.730;2022-08-20T04:53:38;4.97;;;3.90;;
27847;SDS011;15212;48.830;8.730;2022-08-20T04:56:07;7.90;;;3.90;;
27847;SDS011;15212;48.830;8.730;2022-08-20T04:58:38;5.40;;;3.42;;
27847;SDS011;15212;48.830;8.730;2022-08-20T05:01:09;10.03;;;3.83;;
27847;SDS011;15212;48.830;8.730;2022-08-20T05:03:38;6.05;;;3.77;;
27847;SDS011;15212;48.830;8.730;2022-08-20T05:06:08;10.03;;;5.00;;
27847;SDS011;15212;48.830;8.730;2022-08-20T05:08:38;6.47;;;3.90;;
27847;SDS011;15212;48.830;8.730;2022-08-20T05:11:07;6.12;;;3.85;;
27847;SDS011;15212;48.830;8.730;2022-08-20T05:13:36;5.25;;;3.72;;
27847;SDS011;15212;48.830;8.730;2022-08-20T05:16:04;5.15;;;3.83;;
27847;SDS011;15212;48.830;8.730;2022-08-20T05:18:33;5.28;;;3.80;;
27847;SDS011;15212;48.830;8.730;2022-08-20T05:21:02;5.33;;;3.98;;
27847;SDS011;15212;48.830;8.730;2022-08-20T05:23:32;7.83;;;4.03;;
27847;SDS011;15212;48.830;8.730;2022-08-20T05:26:04;5.97;;;4.12;;
27847;SDS011;15212;48.830;8.730;2022-08-20T05:28:34;7.47;;;3.98;;
27847;SDS011;15212;48.830;8.730;2022-08-20T05:31:05;6.42;;;3.77;;
27847;SDS011;15212;48.830;8.730;2022-08-20T05:33:34;5.20;;;3.60;;
27847;SDS011;15212;48.830;8.730;2022-08-20T05:36:05;6.35;;;4.05;;
27847;SDS011;15212;48.830;8.730;2022-08-20T05:38:34;5.03;;;3.67;;
27847;SDS011;15212;48.830;8.730;2022-08-20T05:41:03;6.40;;;4.10;;
27847;SDS011;15212;48.830;8.730;2022-08-20T05:43:32;5.42;;;3.80;;
27847;SDS011;15212;48.830;8.730;2022-08-20T05:46:00;5.50;;;3.80;;
27847;SDS011;15212;48.830;8.730;2022-08-20T05:48:30;5.20;;;3.62;;
27847;SDS011;15212;48.830;8.730;2022-08-20T05:51:00;7.42;;;4.20;;
27847;SDS011;15212;48.830;8.730;2022-08-20T05:53:28;6.65;;;4.15;;
27847;SDS011;15212;48.830;8.730;2022-08-20T05:55:57;7.28;;;4.25;;
27847;SDS011;15212;48.830;8.730;2022-08-20T05:58:26;7.10;;;4.47;;
27847;SDS011;15212;48.830;8.730;2022-08-20T06:00:56;8.08;;;4.37;;
27847;SDS011;15212;48.830;8.730;2022-08-20T06:03:25;6.87;;;4.60;;
27847;SDS011;15212;48.830;8.730;2022-08-20T06:08:40;6.17;;;4.22;;
27847;SDS011;15212;48.830;8.730;2022-08-20T06:11:08;5.65;;;4.17;;
27847;SDS011;15212;48.830;8.730;2022-08-20T06:13:36;7.50;;;4.60;;
27847;SDS011;15212;48.830;8.730;2022-08-20T06:16:05;10.00;;;4.92;;
27847;SDS011;15212;48.830;8.730;2022-08-20T06:18:33;6.45;;;4.20;;
27847;SDS011;15212;48.830;8.730;2022-08-20T06:21:02;7.67;;;4.40;;
27847;SDS011;15212;48.830;8.730;2022-08-20T06:23:31;8.78;;;4.40;;
27847;SDS011;15212;48.830;8.730;2022-08-20T06:25:59;10.23;;;4.33;;
27847;SDS011;15212;48.830;8.730;2022-08-20T06:28:28;6.15;;;4.62;;
27847;SDS011;15212;48.830;8.730;2022-08-20T06:30:56;8.35;;;4.55;;
27847;SDS011;15212;48.830;8.730;2022-08-20T06:33:25;13.43;;;4.72;;
27847;SDS011;15212;48.830;8.730;2022-08-20T06:35:53;11.68;;;4.60;;
27847;SDS011;15212;48.830;8.730;2022-08-20T06:38:23;12.50;;;4.75;;
27847;SDS011;15212;48.830;8.730;2022-08-20T06:40:51;7.80;;;4.35;;
27847;SDS011;15212;48.830;8.730;2022-08-20T06:43:20;10.13;;;4.17;;
27847;SDS011;15212;48.830;8.730;2022-08-20T06:45:48;8.53;;;4.42;;
27847;SDS011;15212;48.830;8.730;2022-08-20T06:48:19;7.58;;;4.00;;
27847;SDS011;15212;48.830;8.730;2022-08-20T06:50:47;5.90;;;4.10;;
27847;SDS011;15212;48.830;8.730;2022-08-20T06:53:17;7.70;;;4.33;;
27847;SDS011;15212;48.830;8.730;2022-08-20T06:55:47;6.83;;;4.28;;
27847;SDS011;15212;48.830;8.730;2022-08-20T06:58:23;6.10;;;3.83;;
27847;SDS011;15212;48.830;8.730;2022-08-20T07:00:54;7.42;;;3.80;;
27847;SDS011;15212;48.830;8.730;2022-08-20T07:03:25;5.85;;;4.05;;
27847;SDS011;15212;48.830;8.730;2022-08-20T07:05:53;4.33;;;3.47;;
27847;SDS011;15212;48.830;8.730;2022-08-20T07:08:23;7.50;;;3.80;;
27847;SDS011;15212;48.830;8.730;2022-08-20T07:10:51;6.15;;;3.47;;
27847;SDS011;15212;48.830;8.730;2022-08-20T07:13:20;4.33;;;3.52;;
27847;SDS011;15212;48.830;8.730;2022-08-20T07:15:49;5.28;;;3.58;;
27847;SDS011;15212;48.830;8.730;2022-08-20T07:18:17;7.65;;;3.77;;
27847;SDS011;15212;48.830;8.730;2022-08-20T07:20:46;7.12;;;3.90;;
27847;SDS011;15212;48.830;8.730;2022-08-20T07:23:14;5.30;;;3.65;;
27847;SDS011;15212;48.830;8.730;2022-08-20T07:25:43;6.60;;;3.92;;
27847;SDS011;15212;48.830;8.730;2022-08-20T07:28:14;5.40;;;3.60;;
27847;SDS011;15212;48.830;8.730;2022-08-20T07:30:46;4.25;;;3.47;;
27847;SDS011;15212;48.830;8.730;2022-08-20T07:33:34;7.00;;;3.45;;
27847;SDS011;15212;48.830;8.730;2022-08-20T07:36:04;6.42;;;3.60;;
27847;SDS011;15212;48.830;8.730;2022-08-20T07:38:34;6.03;;;3.52;;
27847;SDS011;15212;48.830;8.730;2022-08-20T07:41:05;5.62;;;3.77;;
27847;SDS011;15212;48.830;8.730;2022-08-20T07:43:37;4.00;;;3.50;;
27847;SDS011;15212;48.830;8.730;2022-08-20T07:46:07;5.87;;;2.98;;
27847;SDS011;15212;48.830;8.730;2022-08-20T07:48:36;3.72;;;2.98;;
27847;SDS011;15212;48.830;8.730;2022-08-20T07:51:09;5.62;;;3.30;;
27847;SDS011;15212;48.830;8.730;2022-08-20T07:53:41;4.62;;;3.15;;
27847;SDS011;15212;48.830;8.730;2022-08-20T07:56:12;7.78;;;3.00;;
27847;SDS011;15212;48.830;8.730;2022-08-20T07:58:45;3.75;;;2.60;;
27847;SDS011;15212;48.830;8.730;2022-08-20T08:01:18;4.20;;;3.00;;
27847;SDS011;15212;48.830;8.730;2022-08-20T08:03:51;4.50;;;2.85;;
27847;SDS011;15212;48.830;8.730;2022-08-20T08:06:22;4.87;;;2.60;;
27847;SDS011;15212;48.830;8.730;2022-08-20T08:08:52;3.50;;;2.40;;
27847;SDS011;15212;48.830;8.730;2022-08-20T08:11:21;3.92;;;2.55;;
27847;SDS011;15212;48.830;8.730;2022-08-20T08:13:50;3.55;;;2.33;;
27847;SDS011;15212;48.830;8.730;2022-08-20T08:16:19;3.92;;;2.52;;
27847;SDS011;15212;48.830;8.730;2022-08-20T08:18:48;4.15;;;2.72;;
27847;SDS011;15212;48.830;8.730;2022-08-20T08:21:20;4.15;;;2.77;;
27847;SDS011;15212;48.830;8.730;2022-08-20T08:23:49;5.67;;;2.50;;
27847;SDS011;15212;48.830;8.730;2022-08-20T08:26:18;3.45;;;2.35;;
27847;SDS011;15212;48.830;8.730;2022-08-20T08:28:47;2.83;;;2.10;;
27847;SDS011;15212;48.830;8.730;2022-08-20T08:31:16;3.08;;;2.30;;
27847;SDS011;15212;48.830;8.730;2022-08-20T08:33:44;2.20;;;1.95;;
27847;SDS011;15212;48.830;8.730;2022-08-20T08:36:13;4.37;;;2.30;;
27847;SDS011;15212;48.830;8.730;2022-08-20T08:38:43;2.77;;;1.90;;
27847;SDS011;15212;48.830;8.730;2022-08-20T08:41:17;5.83;;;2.20;;
27847;SDS011;15212;48.830;8.730;2022-08-20T08:43:49;3.50;;;2.22;;
27847;SDS011;15212;48.830;8.730;2022-08-20T08:46:23;2.83;;;2.25;;
27847;SDS011;15212;48.830;8.730;2022-08-20T08:48:53;3.65;;;2.37;;
27847;SDS011;15212;48.830;8.730;2022-08-20T08:51:27;6.45;;;2.90;;
27847;SDS011;15212;48.830;8.730;2022-08-20T08:54:13;3.00;;;2.13;;
27847;SDS011;15212;48.830;8.730;2022-08-20T08:56:44;4.03;;;2.62;;
27847;SDS011;15212;48.830;8.730;2022-08-20T08:59:12;2.50;;;2.08;;
27847;SDS011;15212;48.830;8.730;2022-08-20T09:01:44;3.62;;;2.15;;
27847;SDS011;15212;48.830;8.730;2022-08-20T09:04:23;3.87;;;2.20;;
27847;SDS011;15212;48.830;8.730;2022-08-20T09:07:05;2.58;;;1.77;;
27847;SDS011;15212;48.830;8.730;2022-08-20T09:09:37;3.33;;;2.10;;
27847;SDS011;15212;48.830;8.730;2022-08-20T09:12:11;10.90;;;2.60;;
27847;SDS011;15212;48.830;8.730;2022-08-20T09:14:45;6.12;;;2.42;;
27847;SDS011;15212;48.830;8.730;2022-08-20T09:17:16;4.62;;;2.72;;
27847;SDS011;15212;48.830;8.730;2022-08-20T09:19:46;7.83;;;2.90;;
27847;SDS011;15212;48.830;8.730;2022-08-20T09:22:17;9.93;;;2.60;;
27847;SDS011;15212;48.830;8.730;2022-08-20T09:24:51;4.87;;;3.02;;
27847;SDS011;15212;48.830;8.730;2022-08-20T09:27:19;3.58;;;2.35;;
27847;SDS011;15212;48.830;8.730;2022-08-20T09:29:47;2.98;;;2.22;;
27847;SDS011;15212;48.830;8.730;2022-08-20T09:32:18;3.33;;;2.37;;
27847;SDS011;15212;48.830;8.730;2022-08-20T09:34:50;3.60;;;2.25;;
27847;SDS011;15212;48.830;8.730;2022-08-20T09:37:22;4.17;;;2.30;;
27847;SDS011;15212;48.830;8.730;2022-08-20T09:39:53;4.33;;;2.90;;
27847;SDS011;15212;48.830;8.730;2022-08-20T09:42:23;4.17;;;2.98;;
27847;SDS011;15212;48.830;8.730;2022-08-20T09:44:55;5.33;;;3.20;;
27847;SDS011;15212;48.830;8.730;2022-08-20T09:47:24;3.75;;;3.08;;
27847;SDS011;15212;48.830;8.730;2022-08-20T09:49:53;5.90;;;3.42;;
27847;SDS011;15212;48.830;8.730;2022-08-20T09:52:23;3.62;;;2.67;;
27847;SDS011;15212;48.830;8.730;2022-08-20T09:54:56;3.30;;;2.87;;
27847;SDS011;15212;48.830;8.730;2022-08-20T09:57:27;3.47;;;2.70;;
27847;SDS011;15212;48.830;8.730;2022-08-20T09:59:58;2.85;;;2.10;;
27847;SDS011;15212;48.830;8.730;2022-08-20T10:02:32;3.33;;;2.37;;
27847;SDS011;15212;48.830;8.730;2022-08-20T10:05:01;3.50;;;2.08;;
27847;SDS011;15212;48.830;8.730;2022-08-20T10:07:31;2.33;;;1.70;;
27847;SDS011;15212;48.830;8.730;2022-08-20T10:10:00;6.75;;;4.53;;
27847;SDS011;15212;48.830;8.730;2022-08-20T10:12:29;4.47;;;2.92;;
27847;SDS011;15212;48.830;8.730;2022-08-20T10:14:57;2.95;;;1.55;;
27847;SDS011;15212;48.830;8.730;2022-08-20T10:17:26;1.30;;;1.15;;
27847;SDS011;15212;48.830;8.730;2022-08-20T10:19:54;2.22;;;1.47;;
27847;SDS011;15212;48.830;8.730;2022-08-20T10:22:22;4.70;;;1.32;;
27847;SDS011;15212;48.830;8.730;2022-08-20T10:24:52;2.37;;;1.10;;
27847;SDS011;15212;48.830;8.730;2022-08-20T10:27:20;2.02;;;1.20;;
27847;SDS011;15212;48.830;8.730;2022-08-20T10:29:49;1.60;;;1.27;;
27847;SDS011;15212;48.830;8.730;2022-08-20T10:32:17;3.05;;;1.30;;
27847;SDS011;15212;48.830;8.730;2022-08-20T10:34:45;1.25;;;1.10;;
27847;SDS011;15212;48.830;8.730;2022-08-20T10:37:20;1.20;;;0.98;;
27847;SDS011;15212;48.830;8.730;2022-08-20T10:39:46;1.62;;;0.90;;
27847;SDS011;15212;48.830;8.730;2022-08-20T10:42:14;1.45;;;0.85;;
27847;SDS011;15212;48.830;8.730;2022-08-20T10:44:43;1.02;;;0.88;;
27847;SDS011;15212;48.830;8.730;2022-08-20T10:49:50;1.37;;;1.27;;
27847;SDS011;15212;48.830;8.730;2022-08-20T10:52:21;5.50;;;3.77;;
27847;SDS011;15212;48.830;8.730;2022-08-20T10:54:51;0.95;;;0.68;;
27847;SDS011;15212;48.830;8.730;2022-08-20T10:57:25;1.72;;;0.70;;
27847;SDS011;15212;48.830;8.730;2022-08-20T10:59:55;2.83;;;0.70;;
27847;SDS011;15212;48.830;8.730;2022-08-20T11:02:25;1.20;;;0.72;;
27847;SDS011;15212;48.830;8.730;2022-08-20T11:04:54;0.68;;;0.50;;
27847;SDS011;15212;48.830;8.730;2022-08-20T11:09:56;0.72;;;0.70;;
27847;SDS011;15212;48.830;8.730;2022-08-20T11:12:24;0.90;;;0.72;;
27847;SDS011;15212;48.830;8.730;2022-08-20T11:14:53;0.88;;;0.70;;
27847;SDS011;15212;48.830;8.730;2022-08-20T11:17:22;1.47;;;0.88;;
27847;SDS011;15212;48.830;8.730;2022-08-20T11:19:54;4.62;;;2.00;;
27847;SDS011;15212;48.830;8.730;2022-08-20T11:22:24;1.50;;;0.90;;
27847;SDS011;15212;48.830;8.730;2022-08-20T11:24:53;1.60;;;1.00;;
27847;SDS011;15212;48.830;8.730;2022-08-20T11:27:24;2.58;;;1.10;;
27847;SDS011;15212;48.830;8.730;2022-08-20T11:29:54;1.72;;;1.00;;
27847;SDS011;15212;48.830;8.730;2022-08-20T11:32:23;1.77;;;1.32;;
27847;SDS011;15212;48.830;8.730;2022-08-20T11:34:52;1.57;;;1.22;;
27847;SDS011;15212;48.830;8.730;2022-08-20T11:37:21;0.90;;;0.80;;
27847;SDS011;15212;48.830;8.730;2022-08-20T11:39:51;1.27;;;0.70;;
27847;SDS011;15212;48.830;8.730;2022-08-20T11:42:19;0.50;;;0.50;;
27847;SDS011;15212;48.830;8.730;2022-08-20T11:44:48;0.70;;;0.68;;
27847;SDS011;15212;48.830;8.730;2022-08-20T11:47:21;1.12;;;0.80;;
27847;SDS011;15212;48.830;8.730;2022-08-20T11:52:28;2.30;;;0.90;;
27847;SDS011;15212;48.830;8.730;2022-08-20T11:54:57;2.65;;;1.05;;
27847;SDS011;15212;48.830;8.730;2022-08-20T11:57:27;3.35;;;1.47;;
27847;SDS011;15212;48.830;8.730;2022-08-20T11:59:59;1.70;;;1.37;;
27847;SDS011;15212;48.830;8.730;2022-08-20T12:02:32;1.30;;;1.15;;
27847;SDS011;15212;48.830;8.730;2022-08-20T12:05:00;1.20;;;1.10;;
27847;SDS011;15212;48.830;8.730;2022-08-20T12:07:29;1.65;;;1.27;;
27847;SDS011;15212;48.830;8.730;2022-08-20T12:09:57;1.32;;;1.20;;
27847;SDS011;15212;48.830;8.730;2022-08-20T12:12:26;1.80;;;1.15;;
27847;SDS011;15212;48.830;8.730;2022-08-20T12:14:54;1.62;;;1.40;;
27847;SDS011;15212;48.830;8.730;2022-08-20T12:17:28;1.77;;;1.30;;
27847;SDS011;15212;48.830;8.730;2022-08-20T12:19:56;3.35;;;1.40;;
27847;SDS011;15212;48.830;8.730;2022-08-20T12:22:26;1.82;;;1.10;;
27847;SDS011;15212;48.830;8.730;2022-08-20T12:24:55;1.30;;;1.20;;
27847;SDS011;15212;48.830;8.730;2022-08-20T12:27:27;2.30;;;1.30;;
27847;SDS011;15212;48.830;8.730;2022-08-20T12:29:59;7.87;;;1.80;;
27847;SDS011;15212;48.830;8.730;2022-08-20T12:32:31;2.35;;;1.30;;
27847;SDS011;15212;48.830;8.730;2022-08-20T12:35:00;2.95;;;2.35;;
27847;SDS011;15212;48.830;8.730;2022-08-20T12:37:29;3.60;;;1.30;;
27847;SDS011;15212;48.830;8.730;2022-08-20T12:39:58;4.00;;;1.30;;
27847;SDS011;15212;48.830;8.730;2022-08-20T12:42:29;1.20;;;1.10;;
27847;SDS011;15212;48.830;8.730;2022-08-20T12:44:58;1.10;;;1.00;;
27847;SDS011;15212;48.830;8.730;2022-08-20T12:47:31;2.45;;;1.10;;
27847;SDS011;15212;48.830;8.730;2022-08-20T12:52:36;0.93;;;0.90;;
27847;SDS011;15212;48.830;8.730;2022-08-20T12:55:05;1.10;;;1.00;;
27847;SDS011;15212;48.830;8.730;2022-08-20T12:57:38;1.37;;;0.82;;
27847;SDS011;15212;48.830;8.730;2022-08-20T13:02:42;1.22;;;0.88;;
27847;SDS011;15212;48.830;8.730;2022-08-20T13:05:11;1.42;;;1.00;;
27847;SDS011;15212;48.830;8.730;2022-08-20T13:07:40;1.92;;;1.00;;
27847;SDS011;15212;48.830;8.730;2022-08-20T13:10:11;1.20;;;1.10;;
27847;SDS011;15212;48.830;8.730;2022-08-20T13:12:43;1.98;;;0.90;;
27847;SDS011;15212;48.830;8.730;2022-08-20T13:15:11;2.00;;;1.15;;
27847;SDS011;15212;48.830;8.730;2022-08-20T13:17:40;1.32;;;0.93;;
27847;SDS011;15212;48.830;8.730;2022-08-20T13:20:13;0.80;;;0.80;;
27847;SDS011;15212;48.830;8.730;2022-08-20T13:22:43;1.87;;;1.15;;
27847;SDS011;15212;48.830;8.730;2022-08-20T13:25:12;2.87;;;0.93;;
27847;SDS011;15212;48.830;8.730;2022-08-20T13:27:41;0.68;;;0.60;;
27847;SDS011;15212;48.830;8.730;2022-08-20T13:30:12;3.22;;;0.90;;
27847;SDS011;15212;48.830;8.730;2022-08-20T13:32:43;2.27;;;0.80;;
27847;SDS011;15212;48.830;8.730;2022-08-20T13:35:13;2.42;;;0.60;;
27847;SDS011;15212;48.830;8.730;2022-08-20T13:37:42;1.30;;;0.60;;
27847;SDS011;15212;48.830;8.730;2022-08-20T13:40:11;2.08;;;0.62;;
27847;SDS011;15212;48.830;8.730;2022-08-20T13:42:39;0.70;;;0.53;;
27847;SDS011;15212;48.830;8.730;2022-08-20T13:45:08;1.02;;;0.40;;
27847;SDS011;15212;48.830;8.730;2022-08-20T13:47:37;0.82;;;0.50;;
27847;SDS011;15212;48.830;8.730;2022-08-20T13:50:09;0.40;;;0.40;;
27847;SDS011;15212;48.830;8.730;2022-08-20T13:52:43;2.42;;;0.80;;
27847;SDS011;15212;48.830;8.730;2022-08-20T13:55:13;0.55;;;0.47;;
27847;SDS011;15212;48.830;8.730;2022-08-20T13:57:44;3.15;;;0.50;;
27847;SDS011;15212;48.830;8.730;2022-08-20T14:00:15;0.90;;;0.40;;
27847;SDS011;15212;48.830;8.730;2022-08-20T14:02:54;0.62;;;0.40;;
27847;SDS011;15212;48.830;8.730;2022-08-20T14:05:23;0.90;;;0.50;;
27847;SDS011;15212;48.830;8.730;2022-08-20T14:07:51;0.55;;;0.50;;
27847;SDS011;15212;48.830;8.730;2022-08-20T14:10:22;0.62;;;0.40;;
27847;SDS011;15212;48.830;8.730;2022-08-20T14:12:53;0.60;;;0.45;;
27847;SDS011;15212;48.830;8.730;2022-08-20T14:15:22;1.55;;;0.60;;
27847;SDS011;15212;48.830;8.730;2022-08-20T14:17:51;0.80;;;0.50;;
27847;SDS011;15212;48.830;8.730;2022-08-20T14:20:23;0.75;;;0.40;;
27847;SDS011;15212;48.830;8.730;2022-08-20T14:22:55;0.47;;;0.40;;
27847;SDS011;15212;48.830;8.730;2022-08-20T14:25:24;0.80;;;0.60;;
27847;SDS011;15212;48.830;8.730;2022-08-20T14:27:54;3.15;;;0.65;;
27847;SDS011;15212;48.830;8.730;2022-08-20T14:30:24;1.20;;;0.70;;
27847;SDS011;15212;48.830;8.730;2022-08-20T14:32:55;1.22;;;0.70;;
27847;SDS011;15212;48.830;8.730;2022-08-20T14:35:23;1.02;;;0.70;;
27847;SDS011;15212;48.830;8.730;2022-08-20T14:37:52;3.00;;;0.60;;
27847;SDS011;15212;48.830;8.730;2022-08-20T14:40:22;1.00;;;0.60;;
27847;SDS011;15212;48.830;8.730;2022-08-20T14:42:53;1.30;;;0.70;;
27847;SDS011;15212;48.830;8.730;2022-08-20T14:45:22;2.98;;;0.80;;
27847;SDS011;15212;48.830;8.730;2022-08-20T14:47:51;0.88;;;0.70;;
27847;SDS011;15212;48.830;8.730;2022-08-20T14:52:58;1.02;;;0.90;;
27847;SDS011;15212;48.830;8.730;2022-08-20T14:55:29;1.02;;;0.88;;
27847;SDS011;15212;48.830;8.730;2022-08-20T14:58:05;3.37;;;0.98;;
27847;SDS011;15212;48.830;8.730;2022-08-20T15:00:35;2.55;;;0.90;;
27847;SDS011;15212;48.830;8.730;2022-08-20T15:03:04;2.52;;;1.20;;
27847;SDS011;15212;48.830;8.730;2022-08-20T15:05:33;1.40;;;0.80;;
27847;SDS011;15212;48.830;8.730;2022-08-20T15:08:02;2.22;;;1.00;;
27847;SDS011;15212;48.830;8.730;2022-08-20T15:10:31;1.65;;;0.98;;
27847;SDS011;15212;48.830;8.730;2022-08-20T15:13:00;1.55;;;1.15;;
27847;SDS011;15212;48.830;8.730;2022-08-20T15:15:28;1.47;;;0.98;;
27847;SDS011;15212;48.830;8.730;2022-08-20T15:17:57;1.30;;;0.80;;
27847;SDS011;15212;48.830;8.730;2022-08-20T15:20:28;1.80;;;0.98;;
27847;SDS011;15212;48.830;8.730;2022-08-20T15:22:59;2.22;;;1.00;;
27847;SDS011;15212;48.830;8.730;2022-08-20T15:25:28;1.92;;;1.00;;
27847;SDS011;15212;48.830;8.730;2022-08-20T15:27:59;3.52;;;1.02;;
27847;SDS011;15212;48.830;8.730;2022-08-20T15:30:29;2.45;;;1.05;;
27847;SDS011;15212;48.830;8.730;2022-08-20T15:32:58;2.40;;;0.82;;
27847;SDS011;15212;48.830;8.730;2022-08-20T15:35:26;2.72;;;1.10;;
27847;SDS011;15212;48.830;8.730;2022-08-20T15:37:56;2.05;;;1.12;;
27847;SDS011;15212;48.830;8.730;2022-08-20T15:40:27;2.37;;;1.10;;
27847;SDS011;15212;48.830;8.730;2022-08-20T15:42:59;3.20;;;0.90;;